createdAt,value
2024-01-25T00:00:17.339Z,99446.54
2024-01-25T00:03:06.030Z,99444.39
2024-01-25T00:05:34.270Z,99452.73
2024-01-25T00:08:02.290Z,99457.02
2024-01-25T00:10:30.073Z,99460.29
2024-01-25T00:12:58.559Z,99470.41
2024-01-25T00:15:26.368Z,99459.45
2024-01-25T00:17:55.038Z,99468.64
2024-01-25T00:20:23.152Z,99474.36
2024-01-25T00:22:51.557Z,99476.77
2024-01-25T00:25:19.487Z,99473.45
2024-01-25T00:27:48.970Z,99463.61
2024-01-25T00:30:16.817Z,99458.02
2024-01-25T00:32:45.271Z,99465.16
2024-01-25T00:35:15.829Z,99465.23
2024-01-25T00:37:44.140Z,99456.08
2024-01-25T00:40:14.939Z,99458.56
2024-01-25T00:42:54.596Z,99464.02
2024-01-25T00:45:24.082Z,99459.59
2024-01-25T00:47:52.437Z,99451.91
2024-01-25T00:50:26.974Z,99456.27
2024-01-25T00:52:55.656Z,99455.74
2024-01-25T00:55:24.168Z,99458.80
2024-01-25T00:57:53.276Z,99459.61
2024-01-25T01:00:22.193Z,99458.55
2024-01-25T01:02:50.386Z,99453.77
2024-01-25T01:05:19.492Z,99447.02
2024-01-25T01:07:48.144Z,99457.52
2024-01-25T01:10:16.213Z,99458.09
2024-01-25T01:12:44.471Z,99458.95
2024-01-25T01:15:12.563Z,99460.95
2024-01-25T01:17:40.423Z,99446.78
2024-01-25T01:20:09.015Z,99455.27
2024-01-25T01:22:37.374Z,99457.34
2024-01-25T01:25:06.607Z,99455.70
2024-01-25T01:27:34.624Z,99454.16
2024-01-25T01:30:02.700Z,99450.15
2024-01-25T01:32:30.436Z,99451.84
2024-01-25T01:34:58.351Z,99439.73
2024-01-25T01:37:26.410Z,99441.47
2024-01-25T01:39:57.390Z,99443.83
2024-01-25T01:42:25.279Z,99444.39
2024-01-25T01:44:54.189Z,99452.84
2024-01-25T01:47:22.663Z,99453.43
2024-01-25T01:49:50.818Z,99449.16
2024-01-25T01:52:19.909Z,99451.23
2024-01-25T01:54:49.164Z,99452.24
2024-01-25T01:57:17.611Z,99448.04
2024-01-25T01:59:45.961Z,99447.95
2024-01-25T02:02:13.856Z,99448.08
2024-01-25T02:04:42.235Z,99446.58
2024-01-25T02:07:10.446Z,99446.12
2024-01-25T02:09:38.461Z,99442.57
2024-01-25T02:12:08.544Z,99439.16
2024-01-25T02:14:36.689Z,99436.84
2024-01-25T02:17:05.485Z,99435.37
2024-01-25T02:19:33.753Z,99434.21
2024-01-25T02:22:05.451Z,99429.15
2024-01-25T02:24:33.753Z,99433.73
2024-01-25T02:27:02.036Z,99430.67
2024-01-25T02:29:29.996Z,99433.41
2024-01-25T02:31:57.763Z,99436.60
2024-01-25T02:34:25.529Z,99433.55
2024-01-25T02:36:53.462Z,99443.02
2024-01-25T02:39:21.382Z,99441.98
2024-01-25T02:41:49.068Z,99438.92
2024-01-25T02:44:17.944Z,99443.98
2024-01-25T02:46:46.006Z,99446.16
2024-01-25T02:49:13.940Z,99450.08
2024-01-25T02:51:41.948Z,99455.23
2024-01-25T02:54:09.800Z,99455.76
2024-01-25T02:56:37.624Z,99453.76
2024-01-25T02:59:05.316Z,99455.22
2024-01-25T03:01:43.303Z,99464.14
2024-01-25T03:04:12.541Z,99463.14
2024-01-25T03:06:41.627Z,99467.54
2024-01-25T03:09:09.563Z,99467.21
2024-01-25T03:11:37.346Z,99467.16
2024-01-25T03:14:05.397Z,99464.09
2024-01-25T03:16:33.237Z,99471.33
2024-01-25T03:19:01.141Z,99475.59
2024-01-25T03:21:30.401Z,99470.77
2024-01-25T03:23:58.310Z,99473.63
2024-01-25T03:26:28.472Z,99467.08
2024-01-25T03:28:56.288Z,99470.71
2024-01-25T03:31:24.075Z,99477.69
2024-01-25T03:33:52.010Z,99480.41
2024-01-25T03:36:19.961Z,99473.64
2024-01-25T03:38:47.670Z,99474.73
2024-01-25T03:41:15.429Z,99477.17
2024-01-25T03:43:44.819Z,99478.52
2024-01-25T03:46:13.338Z,99480.49
2024-01-25T03:48:41.477Z,99485.30
2024-01-25T03:51:09.971Z,99478.70
2024-01-25T03:53:38.719Z,99481.70
2024-01-25T03:56:13.325Z,99478.81
2024-01-25T03:58:41.175Z,99476.06
2024-01-25T04:01:09.201Z,99473.30
2024-01-25T04:03:37.757Z,99476.17
2024-01-25T04:06:05.995Z,99471.54
2024-01-25T04:08:33.913Z,99471.34
2024-01-25T04:11:01.647Z,99472.13
2024-01-25T04:13:30.022Z,99473.91
2024-01-25T04:15:57.927Z,99469.34
2024-01-25T04:18:25.788Z,99475.49
2024-01-25T04:20:53.669Z,99484.92
2024-01-25T04:23:21.379Z,99484.30
2024-01-25T04:25:50.107Z,99485.54
2024-01-25T04:28:17.959Z,99488.73
2024-01-25T04:30:45.899Z,99483.90
2024-01-25T04:33:13.742Z,99482.47
2024-01-25T04:35:41.650Z,99484.13
2024-01-25T04:38:09.681Z,99483.10
2024-01-25T04:40:37.832Z,99486.28
2024-01-25T04:43:05.803Z,99477.45
2024-01-25T04:45:34.041Z,99482.05
2024-01-25T04:48:02.128Z,99482.38
2024-01-25T04:50:30.135Z,99478.75
2024-01-25T04:52:58.276Z,99485.79
2024-01-25T04:55:26.485Z,99485.17
2024-01-25T04:57:54.756Z,99481.23
2024-01-25T05:00:23.815Z,99483.05
2024-01-25T05:02:51.588Z,99487.25
2024-01-25T05:05:19.654Z,99494.44
2024-01-25T05:07:47.606Z,99492.70
2024-01-25T05:10:15.529Z,99495.89
2024-01-25T05:12:43.555Z,99498.77
2024-01-25T05:15:11.767Z,99499.39
2024-01-25T05:17:40.871Z,99496.77
2024-01-25T05:20:10.034Z,99491.17
2024-01-25T05:22:41.428Z,99498.21
2024-01-25T05:25:09.633Z,99502.84
2024-01-25T05:27:37.452Z,99501.00
2024-01-25T05:30:06.282Z,99507.21
2024-01-25T05:32:35.439Z,99506.84
2024-01-25T05:35:05.010Z,99499.83
2024-01-25T05:37:34.810Z,99509.27
2024-01-25T05:40:02.655Z,99502.46
2024-01-25T05:42:30.508Z,99500.85
2024-01-25T05:44:58.441Z,99499.92
2024-01-25T05:47:26.675Z,99496.06
2024-01-25T05:49:54.977Z,99498.58
2024-01-25T05:52:23.351Z,99503.95
2024-01-25T05:54:51.717Z,99502.63
2024-01-25T05:57:20.529Z,99498.13
2024-01-25T05:59:48.696Z,99499.77
2024-01-25T06:02:16.890Z,99501.52
2024-01-25T06:04:46.107Z,99510.81
2024-01-25T06:07:15.057Z,99513.84
2024-01-25T06:09:43.213Z,99517.39
2024-01-25T06:12:11.479Z,99518.63
2024-01-25T06:14:39.387Z,99528.84
2024-01-25T06:17:09.001Z,99531.56
2024-01-25T06:19:37.036Z,99530.54
2024-01-25T06:22:05.048Z,99525.44
2024-01-25T06:24:33.428Z,99534.35
2024-01-25T06:27:01.958Z,99532.38
2024-01-25T06:29:29.641Z,99531.35
2024-01-25T06:31:58.513Z,99534.47
2024-01-25T06:34:27.566Z,99531.30
2024-01-25T06:36:56.043Z,99532.13
2024-01-25T06:39:23.998Z,99541.99
2024-01-25T06:41:51.868Z,99541.12
2024-01-25T06:44:20.270Z,99543.23
2024-01-25T06:46:48.049Z,99547.28
2024-01-25T06:49:15.944Z,99542.44
2024-01-25T06:51:44.003Z,99540.77
2024-01-25T06:54:13.059Z,99543.17
2024-01-25T06:56:41.151Z,99544.73
2024-01-25T06:59:08.861Z,99536.98
2024-01-25T07:01:37.798Z,99545.83
2024-01-25T07:04:06.238Z,99543.80
2024-01-25T07:06:37.257Z,99547.55
2024-01-25T07:09:05.980Z,99546.88
2024-01-25T07:11:33.923Z,99551.54
2024-01-25T07:14:01.607Z,99553.54
2024-01-25T07:16:31.556Z,99553.79
2024-01-25T07:18:59.462Z,99557.20
2024-01-25T07:21:27.786Z,99557.67
2024-01-25T07:23:55.495Z,99563.56
2024-01-25T07:26:23.640Z,99560.95
2024-01-25T07:28:55.013Z,99566.33
2024-01-25T07:31:22.903Z,99566.63
2024-01-25T07:33:50.778Z,99569.75
2024-01-25T07:36:19.782Z,99573.90
2024-01-25T07:38:48.152Z,99571.91
2024-01-25T07:41:16.665Z,99569.54
2024-01-25T07:43:44.585Z,99572.34
2024-01-25T07:46:12.551Z,99583.55
2024-01-25T07:48:41.189Z,99579.44
2024-01-25T07:51:14.465Z,99578.55
2024-01-25T07:53:42.669Z,99582.34
2024-01-25T07:56:12.026Z,99586.16
2024-01-25T07:58:41.959Z,99579.06
2024-01-25T08:01:10.707Z,99582.31
2024-01-25T08:03:38.813Z,99587.24
2024-01-25T08:06:07.297Z,99590.67
2024-01-25T08:08:35.174Z,99583.23
2024-01-25T08:11:03.209Z,99587.29
2024-01-25T08:13:35.474Z,99594.29
2024-01-25T08:16:03.947Z,99596.59
2024-01-25T08:18:32.426Z,99589.45
2024-01-25T08:21:02.205Z,99601.01
2024-01-25T08:23:30.161Z,99598.79
2024-01-25T08:25:58.001Z,99592.87
2024-01-25T08:28:26.712Z,99598.86
2024-01-25T08:30:54.704Z,99599.75
2024-01-25T08:33:22.684Z,99610.94
2024-01-25T08:35:50.663Z,99611.73
2024-01-25T08:38:18.449Z,99608.41
2024-01-25T08:40:46.262Z,99613.44
2024-01-25T08:43:16.571Z,99613.40
2024-01-25T08:45:44.949Z,99613.70
2024-01-25T08:48:14.812Z,99611.43
2024-01-25T08:50:42.828Z,99617.84
2024-01-25T08:53:11.028Z,99619.07
2024-01-25T08:55:38.827Z,99623.30
2024-01-25T08:58:07.074Z,99617.98
2024-01-25T09:00:35.038Z,99621.33
2024-01-25T09:03:02.914Z,99630.16
2024-01-25T09:05:32.808Z,99631.38
2024-01-25T09:08:00.892Z,99634.88
2024-01-25T09:10:29.039Z,99636.08
2024-01-25T09:12:56.860Z,99645.15
2024-01-25T09:15:24.640Z,99656.48
2024-01-25T09:17:52.432Z,99664.58
2024-01-25T09:20:20.380Z,99664.44
2024-01-25T09:22:48.269Z,99673.48
2024-01-25T09:25:16.889Z,99679.97
2024-01-25T09:27:45.102Z,99679.00
2024-01-25T09:30:13.698Z,99684.63
2024-01-25T09:32:41.728Z,99691.07
2024-01-25T09:35:09.770Z,99694.42
2024-01-25T09:37:37.968Z,99693.09
2024-01-25T09:40:07.349Z,99695.41
2024-01-25T09:42:37.170Z,99698.04
2024-01-25T09:45:08.330Z,99704.92
2024-01-25T09:47:36.209Z,99703.39
2024-01-25T09:50:06.314Z,99713.77
2024-01-25T09:52:35.725Z,99716.81
2024-01-25T09:55:07.903Z,99721.98
2024-01-25T09:57:40.883Z,99720.61
2024-01-25T10:00:13.086Z,99724.38
2024-01-25T10:02:41.417Z,99727.38
2024-01-25T10:05:09.551Z,99732.30
2024-01-25T10:07:42.791Z,99734.20
2024-01-25T10:10:12.177Z,99732.67
2024-01-25T10:12:42.097Z,99734.40
2024-01-25T10:15:11.612Z,99748.04
2024-01-25T10:17:58.802Z,99749.91
2024-01-25T10:20:32.676Z,99752.21
2024-01-25T10:23:01.778Z,99760.34
2024-01-25T10:25:30.462Z,99764.68
2024-01-25T10:27:59.159Z,99761.70
2024-01-25T10:30:28.539Z,99764.77
2024-01-25T10:32:57.291Z,99771.40
2024-01-25T10:35:27.755Z,99775.58
2024-01-25T10:37:56.293Z,99790.63
2024-01-25T10:40:24.538Z,99791.70
2024-01-25T10:42:53.273Z,99786.94
2024-01-25T10:45:21.489Z,99787.80
2024-01-25T10:47:50.487Z,99782.48
2024-01-25T10:50:18.801Z,99789.28
2024-01-25T10:52:47.652Z,99790.86
2024-01-25T10:55:17.717Z,99793.31
2024-01-25T10:57:47.243Z,99795.29
2024-01-25T11:00:17.597Z,99793.65
2024-01-25T11:02:50.931Z,99790.33
2024-01-25T11:05:22.939Z,99792.84
2024-01-25T11:07:52.624Z,99793.08
2024-01-25T11:10:22.384Z,99796.81
2024-01-25T11:12:50.342Z,99787.65
2024-01-25T11:15:20.934Z,99802.13
2024-01-25T11:17:54.029Z,99807.94
2024-01-25T11:20:24.542Z,99810.67
2024-01-25T11:22:57.614Z,99814.41
2024-01-25T11:25:31.832Z,99810.10
2024-01-25T11:28:04.714Z,99810.60
2024-01-25T11:30:36.634Z,99809.75
2024-01-25T11:33:09.238Z,99813.03
2024-01-25T11:35:37.724Z,99820.59
2024-01-25T11:38:05.660Z,99821.89
2024-01-25T11:40:37.491Z,99822.06
2024-01-25T11:43:12.479Z,99826.66
2024-01-25T11:45:44.606Z,99828.80
2024-01-25T11:48:13.316Z,99829.13
2024-01-25T11:50:41.711Z,99830.34
2024-01-25T11:53:10.891Z,99836.90
2024-01-25T11:55:38.764Z,99845.19
2024-01-25T11:58:07.659Z,99852.05
2024-01-25T12:00:36.200Z,99855.11
2024-01-25T12:03:04.984Z,99858.44
2024-01-25T12:05:33.254Z,99858.92
2024-01-25T12:08:01.594Z,99863.61
2024-01-25T12:10:30.025Z,99865.47
2024-01-25T12:12:58.063Z,99863.92
2024-01-25T12:15:25.901Z,99869.27
2024-01-25T12:17:55.254Z,99865.70
2024-01-25T12:20:23.617Z,99872.40
2024-01-25T12:22:51.989Z,99872.23
2024-01-25T12:25:19.842Z,99875.58
2024-01-25T12:27:51.603Z,99875.73
2024-01-25T12:30:19.446Z,99884.46
2024-01-25T12:32:50.970Z,99888.41
2024-01-25T12:35:19.113Z,99888.32
2024-01-25T12:37:46.965Z,99903.34
2024-01-25T12:40:15.130Z,99904.65
2024-01-25T12:42:43.224Z,99909.39
2024-01-25T12:45:11.239Z,99908.90
2024-01-25T12:47:39.089Z,99912.74
2024-01-25T12:50:07.529Z,99908.63
2024-01-25T12:52:35.400Z,99910.14
2024-01-25T12:55:04.432Z,99918.06
2024-01-25T12:57:33.131Z,99916.33
2024-01-25T13:00:01.647Z,99921.25
2024-01-25T13:02:30.436Z,99928.64
2024-01-25T13:04:58.449Z,99934.28
2024-01-25T13:07:26.456Z,99942.67
2024-01-25T13:09:54.193Z,99950.15
2024-01-25T13:12:22.989Z,99964.19
2024-01-25T13:14:52.089Z,99971.61
2024-01-25T13:17:22.448Z,99983.88
2024-01-25T13:19:50.287Z,99990.33
2024-01-25T13:22:22.273Z,99996.40
2024-01-25T13:24:50.724Z,99996.38
2024-01-25T13:27:18.872Z,99996.95
2024-01-25T13:29:46.706Z,100000.88
2024-01-25T13:32:14.425Z,100005.26
2024-01-25T13:34:42.225Z,100007.94
2024-01-25T13:37:10.112Z,100015.98
2024-01-25T13:39:38.082Z,100020.56
2024-01-25T13:42:06.297Z,100026.65
2024-01-25T13:44:34.134Z,100027.27
2024-01-25T13:47:02.909Z,100036.72
2024-01-25T13:49:30.879Z,100039.75
2024-01-25T13:52:01.841Z,100037.93
2024-01-25T13:54:30.474Z,100041.41
2024-01-25T13:56:58.435Z,100046.92
2024-01-25T13:59:26.925Z,100048.61
2024-01-25T14:01:54.896Z,100051.80
2024-01-25T14:04:22.859Z,100058.11
2024-01-25T14:06:51.545Z,100062.86
2024-01-25T14:09:19.869Z,100069.05
2024-01-25T14:11:47.860Z,100072.89
2024-01-25T14:14:15.605Z,100069.40
2024-01-25T14:16:43.478Z,100078.16
2024-01-25T14:19:11.305Z,100079.01
2024-01-25T14:21:39.460Z,100086.17
2024-01-25T14:24:07.578Z,100086.92
2024-01-25T14:26:35.319Z,100099.48
2024-01-25T14:29:03.120Z,100102.23
2024-01-25T14:31:30.929Z,100110.36
2024-01-25T14:33:58.932Z,100116.86
2024-01-25T14:36:26.952Z,100115.27
2024-01-25T14:38:54.677Z,100122.02
2024-01-25T14:41:22.558Z,100127.02
2024-01-25T14:43:50.335Z,100125.51
2024-01-25T14:46:19.194Z,100138.07
2024-01-25T14:48:47.282Z,100137.91
2024-01-25T14:51:15.356Z,100146.31
2024-01-25T14:53:43.691Z,100149.70
2024-01-25T14:56:13.610Z,100160.20
2024-01-25T14:58:41.411Z,100158.23
2024-01-25T15:01:09.151Z,100163.51
2024-01-25T15:03:37.107Z,100161.67
2024-01-25T15:06:05.299Z,100166.70
2024-01-25T15:08:33.084Z,100170.85
2024-01-25T15:11:01.203Z,100179.23
2024-01-25T15:13:28.913Z,100184.79
2024-01-25T15:15:56.941Z,100197.77
2024-01-25T15:18:24.993Z,100203.83
2024-01-25T15:20:54.281Z,100212.63
2024-01-25T15:23:22.057Z,100218.21
2024-01-25T15:25:51.067Z,100222.25
2024-01-25T15:28:21.113Z,100226.78
2024-01-25T15:30:49.393Z,100234.52
2024-01-25T15:33:17.364Z,100231.64
2024-01-25T15:35:45.351Z,100242.09
2024-01-25T15:38:16.669Z,100241.73
2024-01-25T15:40:45.147Z,100244.56
2024-01-25T15:43:12.843Z,100254.02
2024-01-25T15:45:40.584Z,100261.38
2024-01-25T15:48:08.572Z,100264.66
2024-01-25T15:50:36.348Z,100276.59
2024-01-25T15:53:04.263Z,100277.80
2024-01-25T15:55:32.303Z,100281.40
2024-01-25T15:58:00.305Z,100285.45
2024-01-25T16:00:28.383Z,100287.86
2024-01-25T16:02:58.028Z,100296.22
2024-01-25T16:05:26.797Z,100306.31
2024-01-25T16:07:54.582Z,100308.29
2024-01-25T16:10:22.534Z,100320.88
2024-01-25T16:12:51.045Z,100322.84
2024-01-25T16:15:19.721Z,100324.52
2024-01-25T16:17:47.747Z,100331.11
2024-01-25T16:20:17.863Z,100337.17
2024-01-25T16:22:45.570Z,100336.85
2024-01-25T16:25:13.616Z,100344.13
2024-01-25T16:27:41.531Z,100349.39
2024-01-25T16:30:10.041Z,100350.43
2024-01-25T16:32:38.018Z,100349.85
2024-01-25T16:35:06.379Z,100360.83
2024-01-25T16:37:34.234Z,100365.48
2024-01-25T16:40:02.103Z,100371.84
2024-01-25T16:42:30.005Z,100371.69
2024-01-25T16:44:57.814Z,100369.45
2024-01-25T16:47:25.486Z,100374.93
2024-01-25T16:49:53.333Z,100372.95
2024-01-25T16:52:21.115Z,100375.52
2024-01-25T16:54:49.197Z,100372.00
2024-01-25T16:57:16.960Z,100373.66
2024-01-25T16:59:44.761Z,100374.93
2024-01-25T17:02:12.580Z,100378.44
2024-01-25T17:04:40.495Z,100382.54
2024-01-25T17:07:08.673Z,100391.27
2024-01-25T17:09:36.572Z,100399.30
2024-01-25T17:12:05.033Z,100400.20
2024-01-25T17:14:32.746Z,100404.63
2024-01-25T17:17:00.573Z,100409.39
2024-01-25T17:19:28.853Z,100406.75
2024-01-25T17:21:56.935Z,100422.32
2024-01-25T17:24:24.847Z,100419.70
2024-01-25T17:26:52.748Z,100426.35
2024-01-25T17:29:20.749Z,100434.99
2024-01-25T17:31:49.234Z,100434.48
2024-01-25T17:34:17.653Z,100446.52
2024-01-25T17:36:45.841Z,100450.52
2024-01-25T17:39:14.987Z,100451.53
2024-01-25T17:41:42.860Z,100456.75
2024-01-25T17:44:12.955Z,100457.73
2024-01-25T17:46:40.664Z,100463.39
2024-01-25T17:49:09.335Z,100470.13
2024-01-25T17:51:37.927Z,100474.83
2024-01-25T17:54:05.862Z,100478.06
2024-01-25T17:56:38.840Z,100482.17
2024-01-25T17:59:08.265Z,100485.68
2024-01-25T18:01:36.331Z,100486.65
2024-01-25T18:04:04.487Z,100486.38
2024-01-25T18:06:32.609Z,100488.81
2024-01-25T18:09:00.406Z,100489.77
2024-01-25T18:11:28.146Z,100489.09
2024-01-25T18:13:56.984Z,100491.80
2024-01-25T18:16:24.681Z,100492.08
2024-01-25T18:18:52.603Z,100500.20
2024-01-25T18:21:20.587Z,100501.02
2024-01-25T18:23:48.772Z,100505.68
2024-01-25T18:26:16.527Z,100499.73
2024-01-25T18:28:44.228Z,100508.58
2024-01-25T18:31:12.062Z,100510.77
2024-01-25T18:33:39.926Z,100512.88
2024-01-25T18:36:11.867Z,100516.98
2024-01-25T18:38:40.665Z,100520.56
2024-01-25T18:41:10.965Z,100519.29
2024-01-25T18:43:39.217Z,100525.23
2024-01-25T18:46:09.842Z,100527.20
2024-01-25T18:48:37.774Z,100528.59
2024-01-25T18:51:07.954Z,100532.32
2024-01-25T18:53:36.672Z,100532.23
2024-01-25T18:56:04.809Z,100534.89
2024-01-25T18:58:33.020Z,100541.42
2024-01-25T19:01:01.424Z,100546.93
2024-01-25T19:03:29.528Z,100545.52
2024-01-25T19:05:59.111Z,100551.02
2024-01-25T19:08:28.356Z,100554.46
2024-01-25T19:10:56.147Z,100558.13
2024-01-25T19:13:24.838Z,100561.52
2024-01-25T19:15:52.693Z,100564.14
2024-01-25T19:18:20.931Z,100569.95
2024-01-25T19:20:49.132Z,100575.14
2024-01-25T19:23:17.030Z,100583.14
2024-01-25T19:25:44.759Z,100579.80
2024-01-25T19:28:15.050Z,100583.67
2024-01-25T19:30:45.156Z,100585.98
2024-01-25T19:33:13.291Z,100585.63
2024-01-25T19:35:47.488Z,100582.06
2024-01-25T19:38:15.282Z,100588.45
2024-01-25T19:40:46.892Z,100587.40
2024-01-25T19:43:14.696Z,100591.70
2024-01-25T19:45:42.576Z,100591.41
2024-01-25T19:48:10.436Z,100597.06
2024-01-25T19:50:38.938Z,100599.80
2024-01-25T19:53:07.893Z,100604.48
2024-01-25T19:55:35.996Z,100598.59
2024-01-25T19:58:05.464Z,100603.67
2024-01-25T20:00:34.221Z,100609.25
2024-01-25T20:03:02.429Z,100614.95
2024-01-25T20:05:33.128Z,100616.92
2024-01-25T20:08:01.282Z,100613.02
2024-01-25T20:10:29.202Z,100619.41
2024-01-25T20:12:58.217Z,100625.34
2024-01-25T20:15:26.560Z,100630.45
2024-01-25T20:17:54.458Z,100632.75
2024-01-25T20:20:30.932Z,100627.95
2024-01-25T20:23:06.190Z,100630.56
2024-01-25T20:25:33.977Z,100634.55
2024-01-25T20:28:01.909Z,100630.77
2024-01-25T20:30:34.735Z,100632.59
2024-01-25T20:33:02.669Z,100629.14
2024-01-25T20:35:30.678Z,100627.14
2024-01-25T20:37:58.468Z,100626.45
2024-01-25T20:40:26.307Z,100630.61
2024-01-25T20:42:54.035Z,100633.63
2024-01-25T20:45:23.423Z,100632.38
2024-01-25T20:47:51.686Z,100635.61
2024-01-25T20:50:26.269Z,100639.63
2024-01-25T20:53:02.318Z,100641.63
2024-01-25T20:55:30.174Z,100640.86
2024-01-25T20:57:58.390Z,100642.61
2024-01-25T21:00:26.331Z,100641.86
2024-01-25T21:02:54.573Z,100643.89
2024-01-25T21:05:23.163Z,100651.82
2024-01-25T21:07:51.658Z,100652.36
2024-01-25T21:10:21.007Z,100656.59
2024-01-25T21:12:49.372Z,100660.55
2024-01-25T21:15:17.570Z,100663.48
2024-01-25T21:17:45.437Z,100661.28
2024-01-25T21:20:13.390Z,100658.90
2024-01-25T21:22:41.099Z,100662.63
2024-01-25T21:25:11.781Z,100661.14
2024-01-25T21:27:40.044Z,100661.30
2024-01-25T21:30:09.074Z,100666.66
2024-01-25T21:32:36.818Z,100662.83
2024-01-25T21:35:06.518Z,100666.71
2024-01-25T21:37:35.684Z,100669.14
2024-01-25T21:40:04.511Z,100668.02
2024-01-25T21:42:38.260Z,100667.13
2024-01-25T21:45:10.093Z,100673.59
2024-01-25T21:47:39.965Z,100675.35
2024-01-25T21:50:10.201Z,100679.98
2024-01-25T21:52:38.236Z,100680.52
2024-01-25T21:55:11.440Z,100695.20
2024-01-25T21:57:45.751Z,100700.56
2024-01-25T22:00:14.936Z,100704.65
2024-01-25T22:02:46.468Z,100695.73
2024-01-25T22:05:15.791Z,100704.86
2024-01-25T22:07:44.096Z,100708.52
2024-01-25T22:10:11.940Z,100716.89
2024-01-25T22:12:39.693Z,100716.56
2024-01-25T22:15:08.106Z,100718.06
2024-01-25T22:17:36.025Z,100722.54
2024-01-25T22:20:04.478Z,100719.41
2024-01-25T22:22:32.234Z,100727.45
2024-01-25T22:25:00.942Z,100724.88
2024-01-25T22:27:28.843Z,100728.86
2024-01-25T22:29:58.671Z,100735.33
2024-01-25T22:32:26.476Z,100733.01
2024-01-25T22:34:54.416Z,100739.40
2024-01-25T22:37:22.527Z,100745.46
2024-01-25T22:39:50.280Z,100748.88
2024-01-25T22:42:18.070Z,100748.27
2024-01-25T22:44:45.859Z,100752.55
2024-01-25T22:47:13.645Z,100755.51
2024-01-25T22:49:41.543Z,100765.11
2024-01-25T22:52:09.265Z,100765.09
2024-01-25T22:54:39.322Z,100767.66
2024-01-25T22:57:07.212Z,100770.44
2024-01-25T22:59:35.191Z,100776.58
2024-01-25T23:02:02.973Z,100785.67
2024-01-25T23:04:30.704Z,100785.16
2024-01-25T23:06:58.476Z,100791.17
2024-01-25T23:09:26.656Z,100792.93
2024-01-25T23:11:54.712Z,100798.48
2024-01-25T23:14:23.241Z,100801.02
2024-01-25T23:16:50.974Z,100809.70
2024-01-25T23:19:20.783Z,100814.30
2024-01-25T23:21:49.199Z,100819.04
2024-01-25T23:24:16.943Z,100818.09
2024-01-25T23:26:44.788Z,100818.02
2024-01-25T23:29:13.858Z,100818.53
2024-01-25T23:31:41.591Z,100821.89
2024-01-25T23:34:10.225Z,100822.46
2024-01-25T23:36:38.053Z,100830.09
2024-01-25T23:39:06.188Z,100834.88
2024-01-25T23:41:34.528Z,100842.86
2024-01-25T23:44:02.422Z,100836.14
2024-01-25T23:46:30.348Z,100836.32
2024-01-25T23:48:59.027Z,100840.44
2024-01-25T23:51:27.231Z,100841.36
2024-01-25T23:53:55.388Z,100843.11
2024-01-25T23:56:23.746Z,100844.40
2024-01-25T23:58:51.492Z,100840.80
